Time;durP1;ratioP1;P1;durP2;ratioP2;P2;SDS_P1;SDS_P2;PMS_P1;PMS_P2;Temp;Humidity;BMP_temperature;BMP_pressure;BME280_temperature;BME280_humidity;BME280_pressure;Samples;Min_cycle;Max_cycle;Signal;HPM_P1;HPM_P2
2024/01/11 00:00:35;;;;;;;;;;;;;;;-1.71;49.92;101987.94;4957514;28;6808;-72
2024/01/11 00:03:00;;;;;;;;;;;;;;;-1.71;50.39;101982.03;4962237;28;6852;-72
2024/01/11 00:05:26;;;;;;;;;;;;;;;-1.70;50.09;101984.72;4941128;28;7031;-72
2024/01/11 00:07:52;;;;;;;;;;;;;;;-1.69;50.46;101988.13;4938951;28;6844;-72
2024/01/11 00:10:18;;;;;;;;;;;;;;;-1.69;49.80;101998.19;4941145;28;7059;-72
2024/01/11 00:12:44;;;;;;;;;;;;;;;-1.70;50.28;101992.25;4980937;28;6967;-72
2024/01/11 00:15:09;;;;;;;;;;;;;;;-1.70;50.40;101993.88;4959038;28;6776;-72
2024/01/11 00:17:36;;;;;;;;;;;;;;;-1.70;50.04;101996.41;4958696;28;6784;-72
2024/01/11 00:20:02;;;;;;;;;;;;;;;-1.71;50.29;102000.50;4934009;28;7443;-73
2024/01/11 00:22:28;;;;;;;;;;;;;;;-1.70;50.50;101996.41;4943357;28;7094;-72
2024/01/11 00:24:54;;;;;;;;;;;;;;;-1.71;50.39;101992.09;4955964;28;6784;-72
2024/01/11 00:27:19;;;;;;;;;;;;;;;-1.70;50.68;101994.75;4966459;28;6975;-72
2024/01/11 00:29:45;;;;;;;;;;;;;;;-1.70;50.66;102001.44;4940662;28;6978;-72
2024/01/11 00:32:10;;;;;;;;;;;;;;;-1.69;50.27;101994.09;4957787;28;6768;-74
2024/01/11 00:34:36;;;;;;;;;;;;;;;-1.69;50.38;102004.13;4958670;28;7025;-73
2024/01/11 00:37:02;;;;;;;;;;;;;;;-1.71;50.69;102008.06;4943587;28;6997;-75
2024/01/11 00:39:29;;;;;;;;;;;;;;;-1.71;50.18;102014.72;4941611;28;7151;-74
2024/01/11 00:41:54;;;;;;;;;;;;;;;-1.70;50.27;102011.47;4964385;28;6843;-74
2024/01/11 00:44:20;;;;;;;;;;;;;;;-1.72;50.79;102018.81;4964283;28;7274;-75
2024/01/11 00:46:46;;;;;;;;;;;;;;;-1.72;50.42;102018.81;4957443;28;6840;-73
2024/01/11 00:49:11;;;;;;;;;;;;;;;-1.72;50.44;102011.28;4976436;28;6780;-75
2024/01/11 00:51:37;;;;;;;;;;;;;;;-1.70;50.65;102001.44;4943823;28;6960;-75
2024/01/11 00:54:03;;;;;;;;;;;;;;;-1.70;50.77;102002.31;4943035;28;6963;-74
2024/01/11 00:56:28;;;;;;;;;;;;;;;-1.70;50.87;102002.31;4971454;28;6772;-73
2024/01/11 00:58:54;;;;;;;;;;;;;;;-1.70;50.88;102007.34;4958333;28;6765;-75
2024/01/11 01:01:19;;;;;;;;;;;;;;;-1.69;51.11;102008.25;4959301;28;6776;-75
2024/01/11 01:03:45;;;;;;;;;;;;;;;-1.69;50.84;102008.25;4958744;28;6792;-76
2024/01/11 01:06:11;;;;;;;;;;;;;;;-1.69;50.70;102010.75;4958297;28;7001;-73
2024/01/11 01:08:36;;;;;;;;;;;;;;;-1.69;50.69;102010.75;4959429;28;6840;-75
2024/01/11 01:11:02;;;;;;;;;;;;;;;-1.69;51.16;102008.25;4959236;28;6940;-74
2024/01/11 01:13:28;;;;;;;;;;;;;;;-1.70;50.29;102009.84;4953827;28;6787;-75
2024/01/11 01:15:54;;;;;;;;;;;;;;;-1.68;50.81;102010.97;4965998;28;7051;-75
2024/01/11 01:18:20;;;;;;;;;;;;;;;-1.66;50.66;102003.59;4942269;28;6987;-75
2024/01/11 01:20:46;;;;;;;;;;;;;;;-1.65;51.04;102010.41;4948819;28;6955;-74
2024/01/11 01:23:11;;;;;;;;;;;;;;;-1.66;50.49;102003.59;4973573;28;6772;-75
2024/01/11 01:25:37;;;;;;;;;;;;;;;-1.68;50.49;102012.56;4948961;28;6956;-75
2024/01/11 01:28:03;;;;;;;;;;;;;;;-1.69;50.47;102023.34;4971940;28;6937;-75
2024/01/11 01:30:29;;;;;;;;;;;;;;;-1.68;50.92;102022.63;4959207;28;7171;-75
2024/01/11 01:32:54;;;;;;;;;;;;;;;-1.69;50.93;102019.22;4959332;28;7038;-75
2024/01/11 01:35:20;;;;;;;;;;;;;;;-1.68;50.76;102025.13;4957088;28;6784;-73
2024/01/11 01:37:45;;;;;;;;;;;;;;;-1.66;51.17;102032.88;4956742;28;6887;-75
2024/01/11 01:40:12;;;;;;;;;;;;;;;-1.66;50.87;102031.25;4962511;28;6768;-75
2024/01/11 01:42:45;;;;;;;;;;;;;;;-1.68;50.54;102035.19;4946317;28;7239;-75
2024/01/11 01:45:11;;;;;;;;;;;;;;;-1.69;50.71;102025.84;4959484;28;7199;-75
2024/01/11 01:47:39;;;;;;;;;;;;;;;-1.71;50.65;102030.69;4947106;28;7863;-76
2024/01/11 01:50:07;;;;;;;;;;;;;;;-1.72;50.53;102043.09;4961045;28;6795;-76
2024/01/11 01:52:34;;;;;;;;;;;;;;;-1.74;50.38;102047.00;4945561;28;6978;-75
2024/01/11 01:55:02;;;;;;;;;;;;;;;-1.79;51.28;102046.41;4944687;28;7511;-74
2024/01/11 01:57:29;;;;;;;;;;;;;;;-1.84;50.74;102045.84;4963213;28;9292;-75
2024/01/11 01:59:55;;;;;;;;;;;;;;;-1.86;51.13;102048.91;4962140;28;7435;-75
2024/01/11 02:02:22;;;;;;;;;;;;;;;-1.92;50.54;102046.53;4959716;28;6788;-75
2024/01/11 02:04:48;;;;;;;;;;;;;;;-1.96;50.92;102042.75;4959333;28;7020;-76
2024/01/11 02:07:15;;;;;;;;;;;;;;;-2.00;50.49;102049.72;4973189;28;6988;-76
2024/01/11 02:09:42;;;;;;;;;;;;;;;-2.04;50.89;102053.44;4957885;28;6859;-73
2024/01/11 02:12:10;;;;;;;;;;;;;;;-2.12;50.88;102049.97;4954898;28;6804;-75
2024/01/11 02:14:40;;;;;;;;;;;;;;;-2.15;50.37;102048.69;4957669;28;6792;-75
2024/01/11 02:17:06;;;;;;;;;;;;;;;-2.20;50.45;102048.13;4957514;28;6844;-75
2024/01/11 02:19:33;;;;;;;;;;;;;;;-2.24;51.08;102053.44;4957529;28;6780;-75
2024/01/11 02:22:08;;;;;;;;;;;;;;;-2.27;51.15;102050.56;4957955;28;6811;-75
2024/01/11 02:24:33;;;;;;;;;;;;;;;-2.31;51.20;102055.91;4972696;28;7304;-74
2024/01/11 02:27:02;;;;;;;;;;;;;;;-2.33;50.64;102053.19;4956460;28;6780;-75
2024/01/11 02:29:29;;;;;;;;;;;;;;;-2.36;51.18;102047.81;4957572;28;7288;-75
2024/01/11 02:31:56;;;;;;;;;;;;;;;-2.38;50.65;102051.69;4946374;28;6972;-75
2024/01/11 02:34:26;;;;;;;;;;;;;;;-2.40;50.96;102050.63;4959566;28;7335;-73
2024/01/11 02:36:54;;;;;;;;;;;;;;;-2.44;51.04;102046.81;4956940;28;6776;-74
2024/01/11 02:39:22;;;;;;;;;;;;;;;-2.46;50.64;102045.72;4937713;28;7179;-73
2024/01/11 02:41:51;;;;;;;;;;;;;;;-2.48;50.69;102047.16;4940932;28;6967;-74
2024/01/11 02:44:17;;;;;;;;;;;;;;;-2.51;51.62;102037.59;4949279;28;7204;-74
2024/01/11 02:46:42;;;;;;;;;;;;;;;-2.52;50.87;102037.41;4976365;28;6950;-75
2024/01/11 02:49:08;;;;;;;;;;;;;;;-2.52;50.88;102037.41;4951804;28;6955;-75
2024/01/11 02:51:34;;;;;;;;;;;;;;;-2.51;51.57;102041.75;4961156;28;6772;-74
2024/01/11 02:53:59;;;;;;;;;;;;;;;-2.51;51.52;102041.75;4962176;28;6788;-74
2024/01/11 02:56:25;;;;;;;;;;;;;;;-2.50;51.78;102033.50;4961361;28;7289;-75
2024/01/11 02:58:51;;;;;;;;;;;;;;;-2.47;51.86;102038.91;4965467;28;6990;-74
2024/01/11 03:01:16;;;;;;;;;;;;;;;-2.44;51.50;102031.75;4975014;28;6948;-75
2024/01/11 03:03:42;;;;;;;;;;;;;;;-2.40;52.19;102020.47;4976887;28;7241;-73
2024/01/11 03:06:07;;;;;;;;;;;;;;;-2.34;52.14;102018.75;4960257;28;9741;-73
2024/01/11 03:08:33;;;;;;;;;;;;;;;-2.29;52.04;102010.16;4943537;28;6995;-75
2024/01/11 03:10:59;;;;;;;;;;;;;;;-2.21;52.75;102017.75;4945260;28;7059;-75
2024/01/11 03:13:24;;;;;;;;;;;;;;;-2.15;52.41;102021.94;4928826;28;7384;-75
2024/01/11 03:15:50;;;;;;;;;;;;;;;-2.11;52.23;102021.63;4961291;28;7003;-73
2024/01/11 03:18:16;;;;;;;;;;;;;;;-2.07;52.32;102024.50;4944401;28;6958;-75
2024/01/11 03:20:41;;;;;;;;;;;;;;;-2.08;51.52;102022.72;4944262;28;6960;-75
2024/01/11 03:23:07;;;;;;;;;;;;;;;-2.12;52.09;102014.81;4957834;28;6772;-75
2024/01/11 03:25:33;;;;;;;;;;;;;;;-2.16;51.64;102019.25;4944093;28;7249;-75
2024/01/11 03:27:59;;;;;;;;;;;;;;;-2.18;51.91;102024.06;4957789;28;6792;-73
2024/01/11 03:30:25;;;;;;;;;;;;;;;-2.21;51.42;102026.22;4961280;28;6860;-75
2024/01/11 03:32:50;;;;;;;;;;;;;;;-2.25;51.75;102036.56;4960857;28;6796;-73
2024/01/11 03:35:18;;;;;;;;;;;;;;;-2.27;51.11;102022.94;4959858;28;6780;-75
2024/01/11 03:37:43;;;;;;;;;;;;;;;-2.31;51.38;102025.78;4959146;28;6876;-74
2024/01/11 03:40:09;;;;;;;;;;;;;;;-2.34;51.88;102025.38;4949924;28;7060;-74
2024/01/11 03:42:35;;;;;;;;;;;;;;;-2.40;51.87;102016.38;4940922;28;6956;-72
2024/01/11 03:45:00;;;;;;;;;;;;;;;-2.44;51.27;102019.19;4976069;28;6818;-75
2024/01/11 03:47:26;;;;;;;;;;;;;;;-2.48;51.17;102022.03;4955523;28;6772;-75
2024/01/11 03:49:52;;;;;;;;;;;;;;;-2.52;51.18;102015.72;4958397;28;6784;-73
2024/01/11 03:52:17;;;;;;;;;;;;;;;-2.55;51.07;102019.44;4976045;28;6772;-75
2024/01/11 03:54:43;;;;;;;;;;;;;;;-2.61;51.27;102019.56;4952765;28;8083;-75
2024/01/11 03:57:08;;;;;;;;;;;;;;;-2.65;51.27;102028.31;4958688;28;7047;-75
2024/01/11 03:59:35;;;;;;;;;;;;;;;-2.69;51.78;102028.66;4945250;28;6776;-75
2024/01/11 04:02:00;;;;;;;;;;;;;;;-2.72;51.31;102029.88;4959544;28;6808;-72
2024/01/11 04:04:26;;;;;;;;;;;;;;;-2.73;51.11;102030.56;4942716;28;7217;-72
2024/01/11 04:06:52;;;;;;;;;;;;;;;-2.76;51.87;102033.59;4959332;28;6784;-72
2024/01/11 04:09:18;;;;;;;;;;;;;;;-2.77;51.87;102043.44;4957090;28;6984;-72
2024/01/11 04:11:43;;;;;;;;;;;;;;;-2.78;51.46;102042.53;4973163;28;8727;-72
2024/01/11 04:14:09;;;;;;;;;;;;;;;-2.78;52.04;102047.56;4955032;28;6764;-72
2024/01/11 04:16:41;;;;;;;;;;;;;;;-2.79;51.57;102043.25;4957347;28;6804;-72
2024/01/11 04:19:07;;;;;;;;;;;;;;;-2.78;51.63;102045.06;4961599;28;7049;-72
2024/01/11 04:21:32;;;;;;;;;;;;;;;-2.79;51.91;102049.16;4958518;28;7135;-72
2024/01/11 04:23:58;;;;;;;;;;;;;;;-2.77;51.62;102044.34;4968487;28;7195;-72
2024/01/11 04:26:23;;;;;;;;;;;;;;;-2.76;52.56;102053.66;4957799;28;7000;-72
2024/01/11 04:28:50;;;;;;;;;;;;;;;-2.74;51.85;102057.28;4970827;28;6985;-72
2024/01/11 04:31:18;;;;;;;;;;;;;;;-2.73;52.04;102056.56;4959171;28;9065;-72
2024/01/11 04:33:45;;;;;;;;;;;;;;;-2.72;52.61;102054.97;4929301;28;6987;-72
2024/01/11 04:36:12;;;;;;;;;;;;;;;-2.72;52.15;102055.84;4956621;28;7114;-72
2024/01/11 04:38:38;;;;;;;;;;;;;;;-2.70;52.26;102049.44;4972120;28;6976;-72
2024/01/11 04:41:16;;;;;;;;;;;;;;;-2.69;52.39;102045.31;4954772;28;7211;-72
2024/01/11 04:43:44;;;;;;;;;;;;;;;-2.71;52.51;102047.63;4956567;28;6863;-72
2024/01/11 04:46:16;;;;;;;;;;;;;;;-2.74;52.53;102051.38;4940986;28;7150;-72
2024/01/11 04:48:43;;;;;;;;;;;;;;;-2.78;52.16;102055.09;4958406;28;6957;-72
2024/01/11 04:51:10;;;;;;;;;;;;;;;-2.82;51.66;102055.38;4955259;28;7219;-72
2024/01/11 04:53:39;;;;;;;;;;;;;;;-2.85;51.98;102053.41;4947799;28;7414;-72
2024/01/11 04:56:06;;;;;;;;;;;;;;;-2.88;51.92;102070.56;4956161;28;6871;-72
2024/01/11 04:58:32;;;;;;;;;;;;;;;-2.89;52.30;102070.38;4959137;28;6860;-72
2024/01/11 05:00:57;;;;;;;;;;;;;;;-2.93;52.32;102069.97;4971454;28;6971;-72
2024/01/11 05:03:23;;;;;;;;;;;;;;;-2.93;51.85;102069.09;4959302;28;6772;-72
2024/01/11 05:05:49;;;;;;;;;;;;;;;-2.94;52.19;102068.16;4958304;28;6844;-72
2024/01/11 05:08:14;;;;;;;;;;;;;;;-2.94;52.31;102070.69;4941353;28;7113;-72
2024/01/11 05:10:40;;;;;;;;;;;;;;;-2.93;52.29;102077.50;4955709;28;6784;-72
2024/01/11 05:13:05;;;;;;;;;;;;;;;-2.91;52.16;102069.25;4955783;28;6852;-73
2024/01/11 05:15:31;;;;;;;;;;;;;;;-2.89;52.29;102075.41;4953068;28;7108;-73
2024/01/11 05:17:57;;;;;;;;;;;;;;;-2.86;53.25;102084.19;4972856;28;7150;-74
2024/01/11 05:20:23;;;;;;;;;;;;;;;-2.84;52.99;102089.44;4957018;28;6804;-73
2024/01/11 05:22:49;;;;;;;;;;;;;;;-2.80;52.61;102097.56;4956741;28;6859;-73
2024/01/11 05:25:15;;;;;;;;;;;;;;;-2.75;52.96;102094.72;4956431;28;6769;-73
2024/01/11 05:27:40;;;;;;;;;;;;;;;-2.72;53.21;102085.09;4957342;28;7934;-73
2024/01/11 05:30:06;;;;;;;;;;;;;;;-2.69;53.11;102098.03;4957570;28;6800;-74
2024/01/11 05:32:32;;;;;;;;;;;;;;;-2.68;53.50;102095.72;4955673;28;7190;-74
2024/01/11 05:34:58;;;;;;;;;;;;;;;-2.66;52.65;102099.31;4970453;28;8116;-74
2024/01/11 05:37:23;;;;;;;;;;;;;;;-2.62;52.86;102099.72;4947295;28;6974;-73
2024/01/11 05:39:49;;;;;;;;;;;;;;;-2.59;53.28;102107.66;4963480;28;6927;-74
2024/01/11 05:42:15;;;;;;;;;;;;;;;-2.58;53.46;102104.44;4972353;28;7327;-74
2024/01/11 05:44:41;;;;;;;;;;;;;;;-2.56;52.54;102103.94;4940660;28;7000;-73
2024/01/11 05:47:07;;;;;;;;;;;;;;;-2.56;53.17;102111.47;4974803;28;7031;-74
2024/01/11 05:49:32;;;;;;;;;;;;;;;-2.56;53.10;102110.56;4956002;28;7744;-74
2024/01/11 05:51:58;;;;;;;;;;;;;;;-2.55;53.12;102112.34;4954779;28;7252;-73
2024/01/11 05:54:25;;;;;;;;;;;;;;;-2.53;52.77;102118.47;4942898;28;6967;-74
2024/01/11 05:56:55;;;;;;;;;;;;;;;-2.52;52.72;102120.25;4956881;28;7272;-73
2024/01/11 05:59:21;;;;;;;;;;;;;;;-2.53;53.12;102119.38;4955077;28;6879;-74
2024/01/11 06:01:47;;;;;;;;;;;;;;;-2.51;52.86;102109.53;4960282;28;7051;-74
2024/01/11 06:04:13;;;;;;;;;;;;;;;-2.49;53.45;102120.69;4957924;28;6800;-74
2024/01/11 06:06:40;;;;;;;;;;;;;;;-2.48;53.64;102114.94;4957487;28;6761;-73
2024/01/11 06:09:06;;;;;;;;;;;;;;;-2.49;52.82;102128.22;4954354;28;6804;-74
2024/01/11 06:11:32;;;;;;;;;;;;;;;-2.46;52.86;102136.13;4956960;28;7467;-73
2024/01/11 06:13:57;;;;;;;;;;;;;;;-2.45;52.96;102149.59;4955459;28;7436;-73
2024/01/11 06:16:23;;;;;;;;;;;;;;;-2.44;53.13;102134.72;4961031;28;6775;-73
2024/01/11 06:18:50;;;;;;;;;;;;;;;-2.45;52.83;102135.41;4961575;28;6867;-74
2024/01/11 06:21:17;;;;;;;;;;;;;;;-2.46;53.41;102121.06;4960652;28;6792;-73
2024/01/11 06:23:43;;;;;;;;;;;;;;;-2.50;52.82;102128.91;4949410;28;6983;-73
2024/01/11 06:26:10;;;;;;;;;;;;;;;-2.55;52.80;102129.94;4957133;28;6780;-72
2024/01/11 06:28:35;;;;;;;;;;;;;;;-2.60;52.85;102141.88;4960172;28;6776;-72
2024/01/11 06:31:01;;;;;;;;;;;;;;;-2.68;52.60;102157.56;4939031;28;8651;-72
2024/01/11 06:33:28;;;;;;;;;;;;;;;-2.72;53.09;102162.91;4957395;28;6772;-72
2024/01/11 06:35:53;;;;;;;;;;;;;;;-2.74;52.99;102166.84;4973117;28;7009;-72
2024/01/11 06:38:19;;;;;;;;;;;;;;;-2.76;53.38;102171.66;4938379;28;7354;-73
2024/01/11 06:40:45;;;;;;;;;;;;;;;-2.77;52.88;102177.38;4947126;28;7009;-72
2024/01/11 06:43:11;;;;;;;;;;;;;;;-2.79;53.09;102173.78;4945066;28;6898;-72
2024/01/11 06:45:37;;;;;;;;;;;;;;;-2.82;53.10;102179.28;4957938;28;7218;-72
2024/01/11 06:48:03;;;;;;;;;;;;;;;-2.84;52.35;102164.72;4960532;28;6792;-72
2024/01/11 06:50:28;;;;;;;;;;;;;;;-2.87;53.06;102160.19;4946950;28;6999;-72
2024/01/11 06:52:55;;;;;;;;;;;;;;;-2.93;52.72;102157.81;4961971;28;6776;-72
2024/01/11 06:55:20;;;;;;;;;;;;;;;-2.96;52.94;102156.50;4958704;28;6800;-72
2024/01/11 06:57:48;;;;;;;;;;;;;;;-3.01;52.93;102165.03;4961100;28;7151;-72
2024/01/11 07:00:13;;;;;;;;;;;;;;;-3.05;52.76;102160.31;4964643;28;7038;-72
2024/01/11 07:02:42;;;;;;;;;;;;;;;-3.10;52.35;102164.72;4945462;28;6820;-72
2024/01/11 07:05:08;;;;;;;;;;;;;;;-3.10;53.14;102165.66;4962098;28;7013;-72
2024/01/11 07:07:33;;;;;;;;;;;;;;;-3.10;52.95;102162.22;4965037;28;7030;-72
2024/01/11 07:09:59;;;;;;;;;;;;;;;-3.10;53.13;102165.66;4962080;28;7336;-72
2024/01/11 07:12:25;;;;;;;;;;;;;;;-3.10;52.81;102159.72;4943067;28;6788;-72
2024/01/11 07:14:51;;;;;;;;;;;;;;;-3.15;52.66;102160.72;4963008;28;6800;-72
2024/01/11 07:17:17;;;;;;;;;;;;;;;-3.19;52.99;102150.97;4963635;28;6917;-73
2024/01/11 07:19:43;;;;;;;;;;;;;;;-3.24;52.36;102161.31;4961461;28;6991;-72
2024/01/11 07:22:09;;;;;;;;;;;;;;;-3.28;52.27;102169.16;4978706;28;7221;-72
2024/01/11 07:24:37;;;;;;;;;;;;;;;-3.35;52.56;102162.41;4961437;28;6785;-72
2024/01/11 07:27:07;;;;;;;;;;;;;;;-3.40;52.53;102160.00;4963616;28;7019;-72
2024/01/11 07:29:35;;;;;;;;;;;;;;;-3.46;52.64;102157.59;4962676;28;7044;-72
2024/01/11 07:32:01;;;;;;;;;;;;;;;-3.51;52.77;102159.47;4958909;28;6804;-75
2024/01/11 07:34:28;;;;;;;;;;;;;;;-3.54;53.11;102164.09;4940937;28;7162;-75
2024/01/11 07:36:53;;;;;;;;;;;;;;;-3.55;53.02;102162.28;4958542;28;6792;-74
2024/01/11 07:39:19;;;;;;;;;;;;;;;-3.57;52.84;102165.28;4955153;28;6772;-75
2024/01/11 07:41:45;;;;;;;;;;;;;;;-3.61;52.71;102163.09;4957906;28;6794;-75
2024/01/11 07:44:11;;;;;;;;;;;;;;;-3.64;52.67;102166.09;4943927;28;6780;-75
2024/01/11 07:46:36;;;;;;;;;;;;;;;-3.65;53.18;102164.28;4959291;28;6772;-75
2024/01/11 07:49:03;;;;;;;;;;;;;;;-3.66;52.44;102167.50;4957663;28;6788;-75
2024/01/11 07:51:28;;;;;;;;;;;;;;;-3.67;52.75;102180.69;4950567;28;6818;-74
2024/01/11 07:53:54;;;;;;;;;;;;;;;-3.65;52.49;102185.22;4954812;28;6794;-75
2024/01/11 07:56:20;;;;;;;;;;;;;;;-3.65;52.74;102179.31;4939546;28;6992;-75
2024/01/11 07:58:46;;;;;;;;;;;;;;;-3.64;53.54;102183.63;4933828;28;6975;-76
2024/01/11 08:01:12;;;;;;;;;;;;;;;-3.64;53.25;102183.63;4954376;28;7005;-75
2024/01/11 08:03:38;;;;;;;;;;;;;;;-3.64;52.71;102197.06;4960975;28;6950;-75
2024/01/11 08:06:07;;;;;;;;;;;;;;;-3.63;52.76;102195.47;4955810;28;6931;-74
2024/01/11 08:08:34;;;;;;;;;;;;;;;-3.64;53.23;102198.66;4963684;28;6821;-75
2024/01/11 08:10:59;;;;;;;;;;;;;;;-3.62;53.24;102214.81;4943115;28;7003;-75
2024/01/11 08:13:25;;;;;;;;;;;;;;;-3.58;53.54;102217.03;4948293;28;7023;-74
2024/01/11 08:15:50;;;;;;;;;;;;;;;-3.53;53.02;102215.13;4942347;28;6836;-74
2024/01/11 08:18:19;;;;;;;;;;;;;;;-3.49;53.19;102213.22;4957752;28;6816;-75
2024/01/11 08:20:44;;;;;;;;;;;;;;;-3.42;53.75;102224.09;4941701;28;6828;-75
2024/01/11 08:23:10;;;;;;;;;;;;;;;-3.36;53.67;102217.41;4945586;28;7216;-75
2024/01/11 08:25:35;;;;;;;;;;;;;;;-3.33;53.32;102212.78;4949943;28;6945;-74
2024/01/11 08:28:02;;;;;;;;;;;;;;;-3.28;53.91;102214.31;4955517;28;6987;-75
2024/01/11 08:30:28;;;;;;;;;;;;;;;-3.23;53.79;102203.25;4938515;28;7035;-75
2024/01/11 08:32:55;;;;;;;;;;;;;;;-3.15;53.46;102199.25;4955899;28;6856;-74
2024/01/11 08:35:21;;;;;;;;;;;;;;;-3.08;53.47;102199.34;4956332;28;7141;-74
2024/01/11 08:37:47;;;;;;;;;;;;;;;-3.02;53.99;102194.25;4942541;28;6971;-74
2024/01/11 08:40:12;;;;;;;;;;;;;;;-2.97;54.05;102188.22;4955899;28;6987;-75
2024/01/11 08:42:39;;;;;;;;;;;;;;;-2.92;53.22;102201.38;4953614;28;6809;-76
2024/01/11 08:45:07;;;;;;;;;;;;;;;-2.87;53.54;102196.97;4940586;28;7260;-76
2024/01/11 08:47:34;;;;;;;;;;;;;;;-2.82;54.02;102180.88;4955992;28;7190;-76
2024/01/11 08:50:00;;;;;;;;;;;;;;;-2.76;53.82;102176.66;4954443;28;6807;-74
2024/01/11 08:52:25;;;;;;;;;;;;;;;-2.67;53.66;102192.94;4956191;28;7267;-74
2024/01/11 08:54:51;;;;;;;;;;;;;;;-2.60;54.26;102186.19;4928290;28;7293;-74
2024/01/11 08:57:17;;;;;;;;;;;;;;;-2.53;53.66;102188.78;4955607;28;7143;-74
2024/01/11 08:59:42;;;;;;;;;;;;;;;-2.47;54.01;102177.03;4956531;28;6785;-74
2024/01/11 09:02:08;;;;;;;;;;;;;;;-2.39;54.22;102183.94;4948391;28;6998;-74
2024/01/11 09:04:34;;;;;;;;;;;;;;;-2.31;53.88;102189.94;4957402;28;6780;-74
2024/01/11 09:07:00;;;;;;;;;;;;;;;-2.24;53.77;102189.09;4938888;28;7022;-74
2024/01/11 09:09:25;;;;;;;;;;;;;;;-2.17;54.08;102195.81;4958425;28;7023;-73
2024/01/11 09:11:51;;;;;;;;;;;;;;;-2.08;53.47;102202.00;4957782;28;6935;-74
2024/01/11 09:14:18;;;;;;;;;;;;;;;-2.01;54.28;102193.66;4957551;28;6795;-74
2024/01/11 09:16:44;;;;;;;;;;;;;;;-1.94;53.85;102192.84;4948348;28;7014;-74
2024/01/11 09:19:10;;;;;;;;;;;;;;;-1.86;53.80;102187.16;4939956;28;7940;-76
2024/01/11 09:21:36;;;;;;;;;;;;;;;-1.77;54.34;102185.81;4960874;28;6788;-76
2024/01/11 09:24:02;;;;;;;;;;;;;;;-1.69;53.77;102191.81;4921046;28;8628;-76
2024/01/11 09:26:27;;;;;;;;;;;;;;;-1.63;53.97;102197.63;4955293;28;6955;-76
2024/01/11 09:28:53;;;;;;;;;;;;;;;-1.55;53.64;102204.47;4945699;28;7219;-74
2024/01/11 09:31:19;;;;;;;;;;;;;;;-1.46;53.96;102211.38;4940544;28;6960;-74
2024/01/11 09:33:45;;;;;;;;;;;;;;;-1.40;54.23;102217.19;4958122;28;6784;-74
2024/01/11 09:36:12;;;;;;;;;;;;;;;-1.32;54.21;102216.53;4957856;28;6983;-73
2024/01/11 09:38:38;;;;;;;;;;;;;;;-1.25;53.67;102218.19;4954775;28;6785;-74
2024/01/11 09:41:13;;;;;;;;;;;;;;;-1.16;53.94;102223.47;4956049;28;6777;-74
2024/01/11 09:43:40;;;;;;;;;;;;;;;-1.08;53.82;102225.31;4954604;28;6950;-74
2024/01/11 09:46:06;;;;;;;;;;;;;;;-1.02;53.72;102218.53;4945980;28;8325;-74
2024/01/11 09:48:37;;;;;;;;;;;;;;;-0.95;53.72;102221.84;4940575;28;7106;-74
2024/01/11 09:51:07;;;;;;;;;;;;;;;-0.90;53.56;102220.75;4960402;28;6793;-74
2024/01/11 09:53:34;;;;;;;;;;;;;;;-0.85;53.79;102230.69;4963673;28;7127;-74
2024/01/11 09:56:00;;;;;;;;;;;;;;;-0.78;53.69;102239.00;4962022;28;6872;-74
2024/01/11 09:58:26;;;;;;;;;;;;;;;-0.72;53.74;102233.09;4952265;28;6784;-74
2024/01/11 10:00:58;;;;;;;;;;;;;;;-0.67;53.43;102222.72;4958050;28;7391;-74
2024/01/11 10:03:24;;;;;;;;;;;;;;;-0.60;53.22;102212.63;4931493;28;7298;-75
2024/01/11 10:05:52;;;;;;;;;;;;;;;-0.53;53.02;102235.34;4962280;28;7330;-74
2024/01/11 10:08:21;;;;;;;;;;;;;;;-0.47;53.08;102236.13;4943449;28;7219;-75
2024/01/11 10:10:46;;;;;;;;;;;;;;;-0.42;53.06;102235.03;4951178;28;6983;-75
2024/01/11 10:13:12;;;;;;;;;;;;;;;-0.34;53.31;102235.06;4958482;28;6979;-75
2024/01/11 10:15:38;;;;;;;;;;;;;;;-0.20;54.10;102242.66;4944331;28;6923;-75
2024/01/11 10:18:04;;;;;;;;;;;;;;;0.00;53.85;102239.16;4959875;28;6776;-75
2024/01/11 10:20:32;;;;;;;;;;;;;;;0.27;53.78;102235.59;4961090;28;7723;-73
2024/01/11 10:22:58;;;;;;;;;;;;;;;0.61;53.86;102223.53;4960302;28;7050;-75
2024/01/11 10:25:23;;;;;;;;;;;;;;;0.94;53.75;102231.63;4958922;28;7226;-75
2024/01/11 10:27:49;;;;;;;;;;;;;;;1.23;53.03;102235.72;4963788;28;6788;-75
2024/01/11 10:30:16;;;;;;;;;;;;;;;1.46;52.07;102230.78;4941621;28;7120;-73
2024/01/11 10:32:46;;;;;;;;;;;;;;;1.72;52.23;102232.81;4966476;28;7254;-73
2024/01/11 10:35:13;;;;;;;;;;;;;;;1.97;52.06;102235.59;4960872;28;6772;-73
2024/01/11 10:37:39;;;;;;;;;;;;;;;2.17;52.30;102227.72;4961641;28;7008;-75
2024/01/11 10:40:15;;;;;;;;;;;;;;;2.45;52.05;102232.38;4961193;28;7109;-75
2024/01/11 10:42:49;;;;;;;;;;;;;;;2.76;50.67;102235.75;4933184;28;7300;-75
2024/01/11 10:45:17;;;;;;;;;;;;;;;3.16;50.19;102241.69;4949624;28;7250;-75
2024/01/11 10:48:06;;;;;;;;;;;;;;;3.61;49.40;102226.16;4945256;28;6804;-75
2024/01/11 10:50:41;;;;;;;;;;;;;;;4.02;47.73;102216.88;4956148;28;7962;-75
2024/01/11 10:53:40;;;;;;;;;;;;;;;4.47;47.16;102205.31;4960551;28;6880;-74
2024/01/11 10:56:09;;;;;;;;;;;;;;;4.85;46.38;102207.38;4959260;28;6819;-75
2024/01/11 10:58:35;;;;;;;;;;;;;;;5.09;46.48;102214.00;4951882;28;7278;-75
2024/01/11 11:01:04;;;;;;;;;;;;;;;5.23;46.16;102224.66;4960807;28;6788;-75
2024/01/11 11:03:34;;;;;;;;;;;;;;;5.45;45.64;102224.22;4962006;28;6812;-75
2024/01/11 11:06:01;;;;;;;;;;;;;;;5.75;45.28;102226.34;4948577;28;7255;-76
2024/01/11 11:08:28;;;;;;;;;;;;;;;6.18;44.92;102234.69;4946157;28;6856;-74
2024/01/11 11:10:59;;;;;;;;;;;;;;;6.63;43.96;102230.31;4959042;28;6940;-75
2024/01/11 11:13:26;;;;;;;;;;;;;;;7.00;43.17;102222.63;4959165;28;7197;-73
2024/01/11 11:15:53;;;;;;;;;;;;;;;7.29;42.74;102217.63;4963680;28;6784;-74
2024/01/11 11:18:20;;;;;;;;;;;;;;;7.59;42.33;102226.25;4962183;28;6777;-71
2024/01/11 11:20:47;;;;;;;;;;;;;;;7.85;41.78;102227.69;4961741;28;6852;-73
2024/01/11 11:23:19;;;;;;;;;;;;;;;8.02;41.25;102241.94;4960828;28;6846;-72
2024/01/11 11:25:47;;;;;;;;;;;;;;;8.16;40.47;102249.88;4965023;28;6997;-71
2024/01/11 11:28:14;;;;;;;;;;;;;;;8.20;39.56;102247.75;4945638;28;6797;-72
2024/01/11 11:30:43;;;;;;;;;;;;;;;8.14;40.28;102243.75;4950234;28;6796;-73
2024/01/11 11:33:22;;;;;;;;;;;;;;;8.20;40.23;102237.53;4962051;28;6800;-71
2024/01/11 11:35:53;;;;;;;;;;;;;;;8.43;39.15;102240.28;4960733;28;6996;-71
2024/01/11 11:38:25;;;;;;;;;;;;;;;8.50;39.64;102234.94;4951346;28;7010;-74
2024/01/11 11:40:54;;;;;;;;;;;;;;;8.48;39.05;102229.69;4968356;28;6804;-72
2024/01/11 11:43:24;;;;;;;;;;;;;;;8.54;38.31;102233.59;4941282;28;8011;-72
2024/01/11 11:45:51;;;;;;;;;;;;;;;8.75;38.20;102232.84;4958906;28;6971;-72
2024/01/11 11:48:32;;;;;;;;;;;;;;;8.95;37.75;102219.97;4966178;28;6858;-72
2024/01/11 11:51:14;;;;;;;;;;;;;;;9.13;37.66;102225.72;4940900;28;6989;-71
2024/01/11 11:53:41;;;;;;;;;;;;;;;9.13;37.43;102228.28;4960489;28;6880;-74
2024/01/11 11:56:10;;;;;;;;;;;;;;;9.09;38.02;102216.88;4944733;28;6908;-71
2024/01/11 11:58:36;;;;;;;;;;;;;;;9.10;37.22;102221.22;4931419;28;6981;-72
2024/01/11 12:01:04;;;;;;;;;;;;;;;9.17;37.47;102230.31;4959249;28;7216;-73
2024/01/11 12:03:31;;;;;;;;;;;;;;;9.39;37.84;102226.97;4946962;28;6986;-73
2024/01/11 12:05:59;;;;;;;;;;;;;;;9.69;37.51;102227.69;4964360;28;6820;-71
2024/01/11 12:08:24;;;;;;;;;;;;;;;9.93;36.71;102233.88;4959754;28;6800;-73
2024/01/11 12:10:52;;;;;;;;;;;;;;;10.10;36.35;102226.66;4929713;28;7258;-72
2024/01/11 12:13:18;;;;;;;;;;;;;;;10.17;36.29;102217.78;4960002;28;6792;-73
2024/01/11 12:15:43;;;;;;;;;;;;;;;10.30;36.22;102220.53;4946618;28;6849;-71
2024/01/11 12:18:09;;;;;;;;;;;;;;;9.95;35.84;102221.22;4945879;28;6796;-71
2024/01/11 12:20:35;;;;;;;;;;;;;;;9.01;36.86;102221.38;4960106;28;7061;-74
2024/01/11 12:23:02;;;;;;;;;;;;;;;8.05;37.26;102226.00;4958563;28;6840;-73
2024/01/11 12:25:28;;;;;;;;;;;;;;;7.23;38.36;102229.81;4951864;28;6808;-73
2024/01/11 12:27:55;;;;;;;;;;;;;;;6.60;39.21;102235.13;4961730;28;6792;-73
2024/01/11 12:30:26;;;;;;;;;;;;;;;6.06;39.32;102239.50;4947662;28;7018;-73
2024/01/11 12:32:54;;;;;;;;;;;;;;;5.62;39.77;102241.13;4964729;28;6989;-72
2024/01/11 12:35:20;;;;;;;;;;;;;;;5.21;40.50;102231.22;4954810;28;9329;-73
2024/01/11 12:38:00;;;;;;;;;;;;;;;4.84;41.36;102229.38;4959470;28;6835;-72
2024/01/11 12:40:27;;;;;;;;;;;;;;;4.58;41.11;102227.63;4957989;28;6983;-72
2024/01/11 12:42:53;;;;;;;;;;;;;;;4.38;42.11;102214.53;4954462;28;6979;-73
2024/01/11 12:45:22;;;;;;;;;;;;;;;4.23;42.38;102222.38;4957032;28;6804;-72